Time;durP1;ratioP1;P1;durP2;ratioP2;P2;SDS_P1;SDS_P2;PMS_P1;PMS_P2;Temp;Humidity;BMP_temperature;BMP_pressure;BME280_temperature;BME280_humidity;BME280_pressure;Samples;Min_cycle;Max_cycle;Signal;HPM_P1;HPM_P2
2020/12/28 00:00:54;;;;;;;2.45;1.48;;;;;;;3.42;90.55;97680.75;6225923;28;20043;-72
2020/12/28 00:03:55;;;;;;;1.90;1.45;;;;;;;3.50;89.57;97673.22;6226488;28;20053;-71
2020/12/28 00:06:56;;;;;;;2.10;1.52;;;;;;;3.44;89.93;97676.25;6225830;28;20491;-71
2020/12/28 00:09:57;;;;;;;1.40;1.30;;;;;;;3.46;89.98;97674.41;6225640;28;20053;-73
2020/12/28 00:13:00;;;;;;;3.10;1.70;;;;;;;3.48;89.34;97685.47;6226007;28;20081;-72
2020/12/28 00:16:01;;;;;;;4.22;1.52;;;;;;;3.38;90.32;97683.69;6225924;28;20526;-72
2020/12/28 00:19:01;;;;;;;1.48;1.15;;;;;;;3.58;88.65;97671.81;6225586;28;20046;-70
2020/12/28 00:22:02;;;;;;;2.05;1.50;;;;;;;3.46;89.00;97668.38;6225832;28;20498;-70
2020/12/28 00:25:03;;;;;;;2.42;1.52;;;;;;;3.43;89.94;97672.00;6225975;28;20517;-71
2020/12/28 00:28:05;;;;;;;1.92;1.50;;;;;;;3.52;89.37;97678.31;6224993;28;20056;-70
2020/12/28 00:31:08;;;;;;;3.15;1.77;;;;;;;3.44;89.74;97681.44;6225262;28;20403;-70
2020/12/28 00:34:10;;;;;;;1.75;1.20;;;;;;;3.47;88.64;97676.03;6225423;28;20399;-72
2020/12/28 00:37:10;;;;;;;2.83;1.50;;;;;;;3.41;89.62;97673.09;6225121;28;20049;-72
2020/12/28 00:40:11;;;;;;;3.05;1.60;;;;;;;3.56;89.43;97666.75;6225073;28;20054;-70
2020/12/28 00:43:13;;;;;;;3.67;1.58;;;;;;;3.59;88.08;97678.66;6225726;28;20124;-71
2020/12/28 00:46:14;;;;;;;2.08;1.40;;;;;;;3.53;88.07;97669.56;6224985;28;20050;-71
2020/12/28 00:49:15;;;;;;;4.18;1.63;;;;;;;3.51;87.85;97668.88;6225188;28;20058;-70
2020/12/28 00:52:16;;;;;;;2.28;1.48;;;;;;;3.54;88.10;97673.81;6225035;28;20099;-71
2020/12/28 00:55:17;;;;;;;2.03;1.50;;;;;;;3.55;87.76;97685.88;6225082;28;20137;-71
2020/12/28 00:58:18;;;;;;;3.13;1.63;;;;;;;3.51;88.77;97695.66;6245652;23;20046;-73
2020/12/28 01:01:19;;;;;;;2.40;1.48;;;;;;;3.59;88.25;97702.03;6220174;28;20095;-73
2020/12/28 01:04:20;;;;;;;2.22;1.63;;;;;;;3.60;88.14;97694.16;6215193;28;20486;-72
2020/12/28 01:07:21;;;;;;;1.52;1.38;;;;;;;3.55;88.60;97696.25;6224065;28;20191;-72
2020/12/28 01:10:22;;;;;;;1.95;1.27;;;;;;;3.64;87.68;97694.75;6224284;28;20056;-72
2020/12/28 01:13:23;;;;;;;2.00;1.55;;;;;;;3.61;86.94;97685.41;6224917;28;20050;-72
2020/12/28 01:16:24;;;;;;;2.53;1.40;;;;;;;3.52;87.71;97679.13;6224323;28;20049;-72
2020/12/28 01:19:25;;;;;;;2.25;1.38;;;;;;;3.46;88.19;97679.59;6224241;28;20152;-73
2020/12/28 01:22:26;;;;;;;2.65;1.55;;;;;;;3.45;88.83;97677.94;6224554;28;20065;-73
2020/12/28 01:25:26;;;;;;;2.33;1.40;;;;;;;3.47;87.88;97677.81;6224416;28;20130;-71
2020/12/28 01:28:28;;;;;;;2.92;1.48;;;;;;;3.47;88.41;97677.81;6223929;28;20112;-72
2020/12/28 01:31:29;;;;;;;2.40;1.48;;;;;;;3.46;88.28;97681.34;6224082;28;20104;-72
2020/12/28 01:34:30;;;;;;;1.88;1.30;;;;;;;3.55;87.47;97678.09;6224140;28;20054;-72
2020/12/28 01:37:30;;;;;;;1.88;1.42;;;;;;;3.63;87.54;97672.31;6223810;28;20069;-72
2020/12/28 01:40:31;;;;;;;3.30;1.73;;;;;;;3.54;87.60;97673.81;6223758;28;20050;-72
2020/12/28 01:43:33;;;;;;;6.97;1.90;;;;;;;3.49;88.04;97666.38;6224030;28;20085;-73
2020/12/28 01:46:34;;;;;;;2.60;1.33;;;;;;;3.51;88.59;97672.28;6223580;28;20419;-72
2020/12/28 01:49:35;;;;;;;3.97;1.85;;;;;;;3.45;89.25;97667.56;6223638;28;20058;-72
2020/12/28 01:52:36;;;;;;;2.78;1.60;;;;;;;3.49;88.88;97676.75;6223774;28;20072;-72
2020/12/28 01:55:37;;;;;;;4.85;1.85;;;;;;;3.38;89.67;97676.72;6223786;28;20056;-72
2020/12/28 01:58:38;;;;;;;2.38;1.67;;;;;;;3.30;90.66;97681.63;6222894;28;20132;-72
2020/12/28 02:01:40;;;;;;;2.78;2.08;;;;;;;3.24;91.95;97679.50;6223585;28;20046;-72
2020/12/28 02:04:41;;;;;;;2.63;1.80;;;;;;;3.17;92.69;97681.69;6223742;28;20050;-72
2020/12/28 02:07:43;;;;;;;3.38;1.85;;;;;;;3.27;92.81;97676.66;6222996;28;20095;-72
2020/12/28 02:10:45;;;;;;;3.25;2.00;;;;;;;3.24;92.12;97674.31;6222578;28;20056;-72
2020/12/28 02:13:47;;;;;;;3.75;2.28;;;;;;;3.14;93.27;97679.34;6223507;28;20054;-72
2020/12/28 02:16:48;;;;;;;4.55;1.55;;;;;;;3.12;93.42;97673.41;6222918;28;20108;-72
2020/12/28 02:19:49;;;;;;;3.67;1.90;;;;;;;3.11;93.65;97665.75;6222913;28;20049;-72
2020/12/28 02:22:51;;;;;;;3.17;2.05;;;;;;;3.10;93.93;97657.16;6223026;28;20100;-72
2020/12/28 02:25:51;;;;;;;2.05;1.58;;;;;;;3.26;94.17;97664.63;6222882;28;20050;-72
2020/12/28 02:28:52;;;;;;;2.92;2.08;;;;;;;3.14;94.09;97656.00;6222444;28;20057;-72
2020/12/28 02:31:53;;;;;;;2.53;1.90;;;;;;;3.12;94.63;97655.25;6223193;28;20054;-72
2020/12/28 02:34:54;;;;;;;2.15;1.80;;;;;;;3.05;95.35;97654.06;6222779;28;20046;-72
2020/12/28 02:37:55;;;;;;;2.42;1.80;;;;;;;3.11;94.53;97657.97;6222255;28;20053;-72
2020/12/28 02:40:56;;;;;;;3.83;1.92;;;;;;;3.11;95.10;97651.00;6222381;28;20072;-72
2020/12/28 02:43:57;;;;;;;2.28;1.90;;;;;;;3.14;94.82;97653.41;6222740;28;20049;-72
2020/12/28 02:46:58;;;;;;;2.10;1.52;;;;;;;3.05;94.96;97659.25;6222274;28;20049;-72
2020/12/28 02:49:59;;;;;;;4.25;1.98;;;;;;;3.16;95.08;97674.84;6222294;28;20061;-72
2020/12/28 02:53:00;;;;;;;2.67;1.75;;;;;;;3.20;94.37;97683.25;6222487;28;20422;-72
2020/12/28 02:56:01;;;;;;;1.92;1.55;;;;;;;3.14;95.22;97681.13;6222209;28;20108;-72
2020/12/28 02:59:02;;;;;;;1.75;1.35;;;;;;;3.21;94.69;97680.53;6221790;28;20053;-72
2020/12/28 03:02:03;;;;;;;1.75;1.30;;;;;;;3.18;94.75;97674.72;6222378;28;20046;-72
2020/12/28 03:05:04;;;;;;;1.77;1.23;;;;;;;3.13;95.16;97658.69;6222548;28;20052;-72
2020/12/28 03:08:06;;;;;;;3.35;1.92;;;;;;;3.05;95.30;97662.69;6221317;28;20104;-72
2020/12/28 03:11:07;;;;;;;2.45;1.63;;;;;;;3.15;94.87;97667.19;6221663;28;20049;-72
2020/12/28 03:14:07;;;;;;;1.98;1.35;;;;;;;3.08;95.42;97664.19;6222333;28;20489;-72
2020/12/28 03:17:08;;;;;;;1.95;1.42;;;;;;;3.06;95.48;97663.50;6221610;28;20081;-72
2020/12/28 03:20:09;;;;;;;1.90;1.55;;;;;;;3.01;96.50;97663.84;6221375;28;20049;-73
2020/12/28 03:23:11;;;;;;;2.00;1.60;;;;;;;2.97;96.55;97666.75;6221803;28;20053;-72
2020/12/28 03:26:12;;;;;;;1.45;1.33;;;;;;;2.94;96.81;97659.19;6221749;28;20875;-72
2020/12/28 03:29:13;;;;;;;2.60;1.67;;;;;;;2.86;96.51;97659.75;6221323;28;20132;-72
2020/12/28 03:32:14;;;;;;;1.40;1.30;;;;;;;2.83;96.15;97659.97;6222063;28;20041;-72
2020/12/28 03:35:15;;;;;;;1.73;1.40;;;;;;;2.83;96.43;97651.38;6221722;28;20152;-72
2020/12/28 03:38:16;;;;;;;1.90;1.40;;;;;;;2.76;96.49;97648.38;6221681;28;20161;-72
2020/12/28 03:41:17;;;;;;;2.38;1.63;;;;;;;2.73;97.17;97654.63;6221096;28;20107;-72
2020/12/28 03:44:18;;;;;;;1.30;1.20;;;;;;;2.77;97.43;97662.97;6221750;28;20089;-72
2020/12/28 03:47:19;;;;;;;2.13;1.50;;;;;;;2.69;97.00;97658.34;6221376;28;20053;-72
2020/12/28 03:50:19;;;;;;;1.95;1.33;;;;;;;2.87;96.65;97665.78;6221357;28;20049;-72
2020/12/28 03:53:21;;;;;;;1.58;1.35;;;;;;;2.98;96.10;97665.81;6221450;28;20512;-72
2020/12/28 03:56:22;;;;;;;1.90;1.42;;;;;;;2.84;96.24;97661.63;6221347;28;20108;-72
2020/12/28 03:59:23;;;;;;;1.75;1.27;;;;;;;2.88;96.60;97667.41;6221042;28;20050;-72
2020/12/28 04:02:24;;;;;;;1.58;1.30;;;;;;;2.86;96.57;97659.75;6221566;28;20404;-72
2020/12/28 04:05:24;;;;;;;2.38;1.60;;;;;;;2.85;97.09;97658.06;6221168;28;20143;-73
2020/12/28 04:08:26;;;;;;;2.33;1.90;;;;;;;2.87;96.65;97658.00;6221288;28;20050;-72
2020/12/28 04:11:27;;;;;;;1.63;1.40;;;;;;;2.86;96.86;97662.34;6220906;28;20821;-72
2020/12/28 04:14:28;;;;;;;1.70;1.40;;;;;;;2.91;96.79;97665.44;6221567;28;20061;-72
2020/12/28 04:17:28;;;;;;;1.40;1.20;;;;;;;3.09;95.49;97650.31;6220988;28;20050;-73
2020/12/28 04:20:29;;;;;;;1.65;1.38;;;;;;;3.07;95.14;97653.94;6218539;28;20046;-71
2020/12/28 04:23:31;;;;;;;1.80;1.30;;;;;;;3.07;94.83;97656.53;6221134;28;20057;-71
2020/12/28 04:26:32;;;;;;;1.35;1.08;;;;;;;3.14;94.22;97656.00;6221184;28;20057;-72
2020/12/28 04:29:33;;;;;;;2.08;1.40;;;;;;;3.10;94.47;97643.34;6220662;28;20049;-72
2020/12/28 04:32:33;;;;;;;1.60;1.30;;;;;;;3.00;94.98;97646.63;6223265;28;20157;-71
2020/12/28 04:35:34;;;;;;;1.30;1.17;;;;;;;3.03;95.09;97650.75;6225269;28;20049;-71
2020/12/28 04:38:36;;;;;;;1.63;1.30;;;;;;;2.94;95.15;97660.00;6225152;28;20042;-72
2020/12/28 04:41:37;;;;;;;1.50;1.23;;;;;;;2.98;95.95;97653.66;6225399;28;20069;-72
2020/12/28 04:44:38;;;;;;;2.08;1.40;;;;;;;3.00;95.48;97657.00;6225777;28;20054;-72
2020/12/28 04:47:38;;;;;;;1.45;1.33;;;;;;;3.01;95.71;97656.06;6225030;28;20050;-71
2020/12/28 04:50:40;;;;;;;1.88;1.40;;;;;;;3.20;95.04;97657.31;6224811;28;20050;-72
2020/12/28 04:53:44;;;;;;;1.60;1.30;;;;;;;3.26;94.43;97660.25;6225262;28;20411;-72
2020/12/28 04:56:45;;;;;;;1.52;1.30;;;;;;;3.18;94.59;97654.84;6224802;28;20055;-72
2020/12/28 04:59:46;;;;;;;1.58;1.20;;;;;;;3.17;94.10;97655.75;6224489;28;20477;-72
2020/12/28 05:02:47;;;;;;;1.17;1.05;;;;;;;3.17;94.70;97650.56;6225069;28;20046;-72
2020/12/28 05:05:48;;;;;;;1.38;1.27;;;;;;;3.19;94.46;97646.09;6224849;28;20053;-72
2020/12/28 05:08:50;;;;;;;2.22;1.38;;;;;;;3.24;94.33;97656.97;6224294;28;20058;-72
2020/12/28 05:11:52;;;;;;;1.77;1.10;;;;;;;3.24;93.85;97648.38;6224926;28;20042;-72
2020/12/28 05:15:04;;;;;;;1.83;1.10;;;;;;;3.23;94.06;97657.91;6224715;28;20053;-72
2020/12/28 05:18:07;;;;;;;2.05;1.50;;;;;;;3.21;94.61;97651.16;6224507;28;20053;-72
2020/12/28 05:21:08;;;;;;;1.90;1.50;;;;;;;3.27;95.10;97645.53;6224291;28;20084;-72
2020/12/28 05:24:16;;;;;;;1.20;0.80;;;;;;;3.34;93.96;97643.31;6224450;28;20093;-72
2020/12/28 05:27:20;;;;;;;2.33;1.27;;;;;;;3.30;94.67;97645.31;6224121;28;20053;-72
2020/12/28 05:30:21;;;;;;;2.08;1.30;;;;;;;3.37;93.91;97633.53;6223879;28;20050;-72
2020/12/28 05:33:22;;;;;;;2.47;0.90;;;;;;;3.53;92.79;97641.81;6224435;28;20053;-72
2020/12/28 05:36:23;;;;;;;1.40;1.10;;;;;;;3.37;93.04;97643.09;6223569;28;20049;-71
2020/12/28 05:39:27;;;;;;;1.30;1.13;;;;;;;3.48;92.82;97656.09;6223926;28;20072;-72
2020/12/28 05:42:28;;;;;;;1.30;1.20;;;;;;;3.39;92.97;97649.81;6223986;28;20045;-72
2020/12/28 05:45:29;;;;;;;4.65;1.60;;;;;;;3.47;92.17;97654.44;6223448;28;20707;-71
2020/12/28 05:48:34;;;;;;;2.28;1.20;;;;;;;3.42;93.20;97646.19;6223617;28;20503;-72
2020/12/28 05:51:36;;;;;;;1.40;1.05;;;;;;;3.33;94.05;97650.28;6223919;28;20491;-71
2020/12/28 05:54:39;;;;;;;1.63;1.13;;;;;;;3.31;94.17;97662.53;6217712;28;20136;-72
2020/12/28 05:57:40;;;;;;;1.20;0.98;;;;;;;3.43;94.26;97666.81;6223193;28;20041;-72
2020/12/28 06:00:44;;;;;;;1.55;1.30;;;;;;;3.36;94.47;97667.38;6221153;28;20050;-71
2020/12/28 06:03:48;;;;;;;1.20;1.10;;;;;;;3.39;94.70;97672.34;6211813;28;20419;-71
2020/12/28 06:06:49;;;;;;;1.90;1.38;;;;;;;3.36;94.44;97665.63;6222721;28;20104;-72
2020/12/28 06:09:55;;;;;;;1.48;1.20;;;;;;;3.38;94.30;97681.09;6223285;28;20050;-71
2020/12/28 06:12:56;;;;;;;1.42;1.20;;;;;;;3.40;94.67;97664.44;6223244;28;20057;-72
2020/12/28 06:15:58;;;;;;;1.60;1.10;;;;;;;3.38;94.13;97668.94;6216954;28;20046;-72
2020/12/28 06:18:59;;;;;;;1.40;1.00;;;;;;;3.54;94.20;97666.03;6222782;28;20050;-72
2020/12/28 06:22:00;;;;;;;1.23;1.10;;;;;;;3.42;94.40;97682.53;6223135;28;20126;-72
2020/12/28 06:25:04;;;;;;;1.10;1.00;;;;;;;3.49;93.68;97683.72;6223069;28;20050;-72
2020/12/28 06:28:05;;;;;;;1.10;1.00;;;;;;;3.50;93.49;97675.00;6222120;28;20058;-71
2020/12/28 06:31:07;;;;;;;0.93;0.70;;;;;;;3.47;93.48;97678.63;6222575;28;20053;-72
2020/12/28 06:34:17;;;;;;;2.25;1.10;;;;;;;3.45;93.46;97675.34;6221937;28;20080;-72
2020/12/28 06:37:26;;;;;;;1.15;1.02;;;;;;;3.50;93.79;97675.81;6203559;28;20105;-72
2020/12/28 06:40:30;;;;;;;2.10;1.20;;;;;;;3.56;93.52;97669.34;6198038;28;20434;-72
2020/12/28 06:43:38;;;;;;;1.55;0.80;;;;;;;3.54;93.41;97676.41;6208601;28;20129;-72
2020/12/28 06:46:39;;;;;;;2.07;1.10;;;;;;;3.55;93.15;97675.50;6222496;28;20065;-71
2020/12/28 06:49:41;;;;;;;1.30;1.00;;;;;;;3.67;93.10;97678.94;6222036;28;20057;-71
2020/12/28 06:52:42;;;;;;;2.35;1.38;;;;;;;3.48;93.61;97682.06;6222459;28;20136;-71
2020/12/28 06:55:43;;;;;;;1.27;1.15;;;;;;;3.47;94.75;97693.38;6221709;28;20053;-71
2020/12/28 06:58:44;;;;;;;1.15;1.00;;;;;;;3.41;94.83;97696.44;6254063;22;20049;-72
2020/12/28 07:01:46;;;;;;;2.97;1.10;;;;;;;3.44;94.59;97699.63;6246428;28;20465;-72
2020/12/28 07:04:47;;;;;;;1.83;1.02;;;;;;;3.51;93.75;97690.44;6244532;28;20088;-73
2020/12/28 07:07:48;;;;;;;2.83;1.15;;;;;;;3.42;94.35;97701.50;6246462;28;20099;-73
2020/12/28 07:10:56;;;;;;;1.40;0.90;;;;;;;3.36;94.57;97714.09;6246062;28;20092;-72
2020/12/28 07:14:02;;;;;;;1.10;1.00;;;;;;;3.44;94.09;97712.59;6246066;28;20530;-73
2020/12/28 07:17:04;;;;;;;2.20;0.90;;;;;;;3.38;94.31;97709.63;6240301;28;20045;-72
2020/12/28 07:20:11;;;;;;;1.17;1.08;;;;;;;3.44;93.75;97710.00;6246085;28;20053;-72
2020/12/28 07:23:12;;;;;;;0.85;0.80;;;;;;;3.43;93.63;97704.94;6246479;28;20045;-71
2020/12/28 07:26:14;;;;;;;2.05;1.10;;;;;;;3.43;94.10;97710.94;6246290;28;20056;-72
2020/12/28 07:29:16;;;;;;;2.95;1.00;;;;;;;3.39;94.17;97709.50;6245884;28;20084;-73
2020/12/28 07:32:18;;;;;;;1.58;1.23;;;;;;;3.37;94.00;97708.81;6246490;28;20041;-72
2020/12/28 07:35:18;;;;;;;1.05;0.90;;;;;;;3.36;94.13;97720.13;6245785;28;20422;-73
2020/12/28 07:38:20;;;;;;;1.95;1.08;;;;;;;3.35;94.28;97718.47;6246106;28;20141;-73
2020/12/28 07:41:23;;;;;;;1.60;1.15;;;;;;;3.29;94.51;97722.34;6245634;28;20133;-71
2020/12/28 07:44:25;;;;;;;2.38;1.38;;;;;;;3.30;95.10;97715.38;6246458;28;20060;-70
2020/12/28 07:47:35;;;;;;;1.25;1.10;;;;;;;3.33;94.84;97720.34;6245385;28;20525;-72
2020/12/28 07:50:37;;;;;;;1.92;1.30;;;;;;;3.31;94.98;97722.22;6246124;28;20057;-71
2020/12/28 07:53:41;;;;;;;2.22;1.25;;;;;;;3.27;95.58;97725.97;6245956;28;20049;-72
2020/12/28 07:56:46;;;;;;;1.77;1.20;;;;;;;3.25;95.68;97733.88;6245125;28;20053;-71
2020/12/28 07:59:58;;;;;;;1.30;1.13;;;;;;;3.33;95.61;97727.31;6244643;28;20056;-71
2020/12/28 08:03:16;;;;;;;1.85;1.20;;;;;;;3.30;95.77;97728.34;6245866;28;20465;-71
2020/12/28 08:06:19;;;;;;;3.90;1.10;;;;;;;3.30;95.73;97731.78;6245849;28;20090;-72
2020/12/28 08:09:21;;;;;;;2.03;1.13;;;;;;;3.41;95.77;97738.81;6250226;28;20139;-71
2020/12/28 08:12:23;;;;;;;1.77;1.30;;;;;;;3.36;95.35;97751.28;6250794;28;20045;-71
2020/12/28 08:15:29;;;;;;;1.90;1.40;;;;;;;3.40;95.75;97763.06;6250678;28;20045;-71
2020/12/28 08:18:29;;;;;;;2.50;1.50;;;;;;;3.46;95.82;97765.25;6250460;28;20049;-71
2020/12/28 08:21:38;;;;;;;1.70;1.30;;;;;;;3.41;95.90;97767.34;6250010;28;20060;-71
2020/12/28 08:24:39;;;;;;;1.43;1.17;;;;;;;3.51;95.77;97770.94;6249800;28;20049;-71
2020/12/28 08:27:43;;;;;;;2.58;1.50;;;;;;;3.54;95.34;97778.50;6248947;28;20660;-72
2020/12/28 08:30:44;;;;;;;2.63;1.48;;;;;;;3.54;95.52;97777.66;6249741;28;20452;-71
2020/12/28 08:33:45;;;;;;;5.43;1.58;;;;;;;3.54;95.79;97778.50;6241713;28;20042;-71
2020/12/28 08:36:53;;;;;;;1.40;1.27;;;;;;;3.55;95.14;97780.16;6249664;28;20580;-71
2020/12/28 08:39:54;;;;;;;1.90;1.30;;;;;;;3.67;94.48;97777.59;6249457;28;20053;-71
2020/12/28 08:42:57;;;;;;;1.90;1.30;;;;;;;3.57;94.57;97777.44;6250335;28;20474;-71
2020/12/28 08:46:03;;;;;;;1.30;1.20;;;;;;;3.55;94.75;97780.16;6249518;28;20103;-71
2020/12/28 08:49:04;;;;;;;1.85;1.23;;;;;;;3.54;94.61;97788.91;6249708;28;20068;-71
2020/12/28 08:52:08;;;;;;;1.40;1.30;;;;;;;3.61;95.35;97784.06;6249701;28;20046;-71
2020/12/28 08:55:10;;;;;;;1.80;1.35;;;;;;;3.58;95.70;97780.88;6249930;28;20053;-71
2020/12/28 08:58:20;;;;;;;2.03;1.35;;;;;;;3.63;95.68;97787.38;6249210;28;20057;-71
2020/12/28 09:01:21;;;;;;;2.20;1.50;;;;;;;3.69;95.52;97789.53;6248802;28;20037;-71
2020/12/28 09:04:23;;;;;;;2.30;1.60;;;;;;;3.79;94.87;97794.88;6249244;28;20049;-71
2020/12/28 09:07:24;;;;;;;2.17;1.65;;;;;;;3.83;93.94;97792.91;6248270;28;20052;-71
2020/12/28 09:10:25;;;;;;;2.67;1.30;;;;;;;3.86;93.58;97798.72;6249004;28;20045;-71
2020/12/28 09:13:27;;;;;;;1.65;1.20;;;;;;;3.94;93.18;97791.16;6249286;28;20081;-71
2020/12/28 09:16:28;;;;;;;2.33;1.30;;;;;;;4.04;93.08;97801.69;6249149;28;20045;-71
2020/12/28 09:19:29;;;;;;;2.72;1.35;;;;;;;4.01;92.34;97807.97;6247756;28;20056;-71
2020/12/28 09:22:30;;;;;;;2.20;1.15;;;;;;;4.14;92.21;97805.28;6249256;28;20060;-71
2020/12/28 09:25:31;;;;;;;2.03;1.33;;;;;;;4.26;91.12;97806.13;6249142;28;20050;-71
2020/12/28 09:28:32;;;;;;;10.60;0.98;;;;;;;4.33;90.11;97810.75;6248666;28;20054;-71
2020/12/28 09:31:33;;;;;;;8.80;1.48;;;;;;;4.26;91.13;97809.56;6248267;28;20053;-71
2020/12/28 09:34:34;;;;;;;1.70;0.88;;;;;;;4.33;91.55;97818.56;6247550;28;20046;-71
2020/12/28 09:37:35;;;;;;;3.95;1.02;;;;;;;4.28;90.85;97814.66;6248110;28;20128;-71
2020/12/28 09:40:36;;;;;;;6.05;1.13;;;;;;;4.40;90.50;97821.50;6248263;28;20050;-71
2020/12/28 09:43:39;;;;;;;2.70;1.00;;;;;;;4.37;90.99;97816.56;6248742;28;20049;-71
2020/12/28 09:46:40;;;;;;;1.30;0.90;;;;;;;4.30;90.99;97821.38;6248097;28;20521;-71
2020/12/28 09:49:41;;;;;;;2.97;1.40;;;;;;;4.33;91.75;97828.13;6248163;28;20084;-71
2020/12/28 09:52:42;;;;;;;3.78;1.55;;;;;;;4.54;92.14;97838.69;6247237;28;20523;-73
2020/12/28 09:55:42;;;;;;;3.38;1.10;;;;;;;4.46;90.64;97838.44;6240703;28;20099;-71
2020/12/28 09:58:44;;;;;;;1.40;1.20;;;;;;;4.50;90.00;97839.88;6233652;28;20498;-73
2020/12/28 10:01:46;;;;;;;1.52;1.02;;;;;;;4.60;89.13;97834.81;6247691;28;20099;-73
2020/12/28 10:04:47;;;;;;;1.40;1.00;;;;;;;4.73;87.68;97840.75;6245819;28;20057;-72
2020/12/28 10:07:48;;;;;;;1.10;0.80;;;;;;;4.62;87.62;97838.94;6247644;28;20494;-72
2020/12/28 10:10:49;;;;;;;1.35;1.10;;;;;;;4.60;88.31;97851.22;6242521;28;20088;-72
2020/12/28 10:13:50;;;;;;;1.15;0.90;;;;;;;4.66;88.25;97847.34;6223289;28;20054;-72
2020/12/28 10:16:51;;;;;;;2.15;1.13;;;;;;;4.81;87.93;97843.56;6223266;28;20061;-71
2020/12/28 10:19:52;;;;;;;1.55;1.00;;;;;;;4.71;87.52;97845.22;6241179;28;20053;-72
2020/12/28 10:22:53;;;;;;;2.92;1.35;;;;;;;4.71;87.95;97850.41;6247189;28;20546;-72
2020/12/28 10:25:54;;;;;;;1.60;1.10;;;;;;;4.68;88.08;97840.22;6247026;28;20514;-72
2020/12/28 10:28:57;;;;;;;4.07;1.08;;;;;;;4.81;88.31;97838.34;6245937;28;20067;-71
2020/12/28 10:31:58;;;;;;;2.72;1.30;;;;;;;4.76;87.88;97824.88;6247133;28;20048;-72
2020/12/28 10:34:59;;;;;;;3.13;1.30;;;;;;;4.69;87.38;97821.09;6247045;28;20422;-74
2020/12/28 10:38:00;;;;;;;1.88;1.10;;;;;;;4.83;87.74;97824.28;6247127;28;20053;-73
2020/12/28 10:41:01;;;;;;;1.88;1.08;;;;;;;4.69;87.78;97819.31;6246937;28;20053;-72
2020/12/28 10:44:02;;;;;;;2.65;1.10;;;;;;;4.67;87.14;97808.19;6247514;28;20103;-73
2020/12/28 10:47:03;;;;;;;2.65;1.20;;;;;;;4.46;88.12;97800.28;6246755;28;20049;-71
2020/12/28 10:50:04;;;;;;;1.85;1.30;;;;;;;4.39;88.75;97808.63;6246637;28;20056;-71
2020/12/28 10:53:05;;;;;;;1.75;1.10;;;;;;;4.43;88.60;97817.88;6246987;28;20494;-72
2020/12/28 10:56:07;;;;;;;2.95;1.35;;;;;;;4.32;89.12;97819.50;6247025;28;20053;-72
2020/12/28 10:59:09;;;;;;;3.25;1.45;;;;;;;4.39;89.71;97813.84;6246322;28;20049;-72
2020/12/28 11:02:09;;;;;;;3.92;2.13;;;;;;;4.33;89.25;97802.97;6247077;28;20053;-72
2020/12/28 11:05:10;;;;;;;1.50;0.95;;;;;;;4.45;89.33;97809.03;6246877;28;20049;-71
2020/12/28 11:08:12;;;;;;;1.88;0.90;;;;;;;4.73;88.71;97815.56;6246682;28;20057;-71
2020/12/28 11:11:13;;;;;;;1.27;0.90;;;;;;;4.68;88.90;97817.69;6245956;28;20497;-69
2020/12/28 11:14:15;;;;;;;1.30;1.15;;;;;;;4.88;87.63;97805.72;6246637;28;20099;-75
2020/12/28 11:17:16;;;;;;;1.50;1.13;;;;;;;5.02;86.52;97812.47;6246459;28;20045;-77
2020/12/28 11:20:16;;;;;;;1.42;0.82;;;;;;;4.97;85.97;97817.19;6245953;28;20147;-74
2020/12/28 11:23:17;;;;;;;2.38;1.08;;;;;;;5.01;84.74;97814.25;6246781;28;20132;-74
2020/12/28 11:26:19;;;;;;;0.93;0.80;;;;;;;5.05;86.08;97823.47;6246356;28;20057;-71
2020/12/28 11:29:20;;;;;;;0.68;0.68;;;;;;;5.08;85.21;97812.81;6245848;28;20442;-73
2020/12/28 11:32:21;;;;;;;2.22;1.10;;;;;;;5.18;85.56;97815.53;6246466;28;20045;-77
2020/12/28 11:35:22;;;;;;;1.52;0.90;;;;;;;5.14;85.65;97828.91;6246120;28;20056;-76
2020/12/28 11:38:23;;;;;;;1.00;0.70;;;;;;;5.06;86.32;97829.50;6246248;28;20049;-71
2020/12/28 11:41:24;;;;;;;1.25;0.80;;;;;;;5.09;86.32;97837.91;6245818;28;20111;-76
2020/12/28 11:44:26;;;;;;;1.67;0.98;;;;;;;5.25;85.38;97837.53;6251163;28;20458;-71
2020/12/28 11:47:27;;;;;;;1.58;0.90;;;;;;;5.33;84.18;97829.13;6250941;28;20489;-71
2020/12/28 11:50:28;;;;;;;0.73;0.60;;;;;;;5.36;82.40;97828.88;6251077;28;20053;-71
2020/12/28 11:53:29;;;;;;;1.55;0.98;;;;;;;5.37;84.05;97829.72;6251105;28;20049;-71
2020/12/28 11:56:35;;;;;;;2.35;1.10;;;;;;;5.33;84.54;97832.56;6251062;28;20049;-71
2020/12/28 11:59:36;;;;;;;4.35;0.95;;;;;;;5.22;85.47;97829.97;6250442;28;20053;-71
2020/12/28 12:02:37;;;;;;;0.95;0.65;;;;;;;5.32;84.96;97840.50;6251236;28;20054;-71
2020/12/28 12:05:38;;;;;;;1.58;0.90;;;;;;;5.21;85.25;97843.09;6250519;28;20054;-71
2020/12/28 12:09:08;;;;;;;1.58;0.98;;;;;;;5.15;86.52;97844.41;6250443;28;20049;-71
2020/12/28 12:12:00;;;;;;;1.40;1.00;;;;;;;5.07;86.78;97839.78;6250535;28;20069;-71
2020/12/28 12:15:01;;;;;;;1.90;1.30;;;;;;;5.09;86.23;97835.31;6251023;28;20517;-71
2020/12/28 12:18:02;;;;;;;3.28;1.40;;;;;;;5.16;86.51;97832.22;6250267;28;20445;-72
2020/12/28 12:21:03;;;;;;;3.50;1.63;;;;;;;5.52;84.42;97823.28;6250212;28;20108;-71
2020/12/28 12:24:04;;;;;;;0.98;0.70;;;;;;;5.27;83.05;97820.03;6249501;28;20053;-71
2020/12/28 12:27:04;;;;;;;2.17;0.93;;;;;;;5.20;84.42;97823.22;6248824;28;20049;-70
2020/12/28 12:30:06;;;;;;;1.23;0.82;;;;;;;5.29;83.27;97823.31;6250194;28;20050;-71
2020/12/28 12:33:07;;;;;;;0.70;0.60;;;;;;;5.26;82.21;97820.94;6250133;28;20041;-71
2020/12/28 12:36:08;;;;;;;1.23;0.50;;;;;;;5.29;80.82;97822.50;6249658;28;20045;-71
2020/12/28 12:39:09;;;;;;;4.40;0.40;;;;;;;5.37;80.10;97811.50;6249666;28;20058;-71
2020/12/28 12:42:10;;;;;;;0.98;0.65;;;;;;;5.21;80.55;97819.66;6250441;28;20041;-71
2020/12/28 12:45:12;;;;;;;0.85;0.63;;;;;;;5.22;80.65;97803.94;6249995;28;20540;-71
2020/12/28 12:48:12;;;;;;;1.52;0.75;;;;;;;5.15;81.00;97809.75;6249787;28;20057;-71
2020/12/28 12:51:14;;;;;;;3.80;1.40;;;;;;;5.24;81.00;97814.22;6249674;28;20049;-71
2020/12/28 12:54:14;;;;;;;8.27;2.53;;;;;;;5.30;79.24;97816.34;6249580;28;20084;-71
2020/12/28 12:57:16;;;;;;;6.18;1.88;;;;;;;5.25;81.89;97813.28;6249699;28;20128;-72
2020/12/28 13:00:18;;;;;;;3.70;1.60;;;;;;;5.38;81.02;97813.97;6270469;23;20192;-72
2020/12/28 13:03:19;;;;;;;1.88;1.02;;;;;;;5.36;80.17;97808.06;6249485;28;20056;-71
2020/12/28 13:06:19;;;;;;;2.05;0.90;;;;;;;5.27;81.77;97811.38;6249131;28;20057;-71
2020/12/28 13:09:20;;;;;;;5.93;2.95;;;;;;;5.25;82.03;97821.91;6248953;28;20052;-72
2020/12/28 13:12:21;;;;;;;2.53;1.35;;;;;;;5.26;82.40;97818.34;6249544;28;20053;-72
2020/12/28 13:15:23;;;;;;;7.00;2.63;;;;;;;5.29;83.38;97820.72;6249246;28;20081;-72
2020/12/28 13:18:24;;;;;;;7.50;3.65;;;;;;;5.33;83.72;97835.16;6249082;28;20099;-72
2020/12/28 13:21:25;;;;;;;3.53;1.00;;;;;;;5.27;82.87;97830.44;6248690;28;20053;-72
2020/12/28 13:24:25;;;;;;;2.53;1.10;;;;;;;5.41;82.79;97824.16;6249390;28;20045;-72
2020/12/28 13:27:26;;;;;;;0.55;0.40;;;;;;;5.32;82.64;97828.28;6248628;28;20049;-72
2020/12/28 13:30:28;;;;;;;0.55;0.47;;;;;;;5.28;82.33;97826.06;6248817;28;20045;-72
2020/12/28 13:33:29;;;;;;;1.55;0.95;;;;;;;5.16;82.77;97825.22;6248631;28;20520;-72
2020/12/28 13:36:30;;;;;;;1.83;1.35;;;;;;;5.25;82.87;97821.06;6248475;28;20057;-72
2020/12/28 13:39:31;;;;;;;3.20;0.98;;;;;;;5.28;81.93;97818.25;6248481;28;20184;-73
2020/12/28 13:42:32;;;;;;;1.33;0.80;;;;;;;5.23;80.85;97812.56;6248623;28;20461;-73
2020/12/28 13:45:33;;;;;;;1.90;0.55;;;;;;;5.18;81.64;97812.94;6248859;28;20073;-72
2020/12/28 13:48:34;;;;;;;1.35;0.80;;;;;;;5.13;81.26;97807.22;6248120;28;20053;-72
2020/12/28 13:51:35;;;;;;;2.88;0.50;;;;;;;4.95;82.27;97803.47;6248534;28;20080;-72
2020/12/28 13:54:36;;;;;;;0.75;0.68;;;;;;;4.87;82.33;97809.28;6248359;28;20045;-72
2020/12/28 13:57:37;;;;;;;1.08;0.75;;;;;;;4.82;82.49;97821.81;6248297;28;20057;-73
2020/12/28 14:00:38;;;;;;;1.42;0.85;;;;;;;4.96;81.94;97829.38;6247679;28;20407;-73
2020/12/28 14:03:40;;;;;;;0.88;0.80;;;;;;;4.82;82.66;97832.22;6247891;28;20041;-73
2020/12/28 14:06:41;;;;;;;1.92;0.90;;;;;;;4.88;83.17;97831.75;6247311;28;20457;-73
2020/12/28 14:09:42;;;;;;;0.60;0.60;;;;;;;4.92;81.56;97835.78;6247660;28;20057;-73
2020/12/28 14:12:43;;;;;;;1.02;0.52;;;;;;;4.80;82.80;97844.50;6248147;28;20056;-73
2020/12/28 14:15:44;;;;;;;2.28;0.65;;;;;;;4.83;82.17;97841.69;6247897;28;20496;-73
2020/12/28 14:18:46;;;;;;;2.97;0.80;;;;;;;4.72;82.29;97839.88;6247153;28;20053;-73
2020/12/28 14:21:47;;;;;;;2.45;0.60;;;;;;;4.62;82.76;97854.53;6247907;28;20103;-73
2020/12/28 14:24:48;;;;;;;1.83;0.90;;;;;;;4.65;82.76;97848.28;6247873;28;20075;-74